Time;durP1;ratioP1;P1;durP2;ratioP2;P2;SDS_P1;SDS_P2;PMS_P1;PMS_P2;Temp;Humidity;BMP_temperature;BMP_pressure;BME280_temperature;BME280_humidity;BME280_pressure;Samples;Min_cycle;Max_cycle;Signal;HPM_P1;HPM_P2
2024/04/16 00:02:22;;;;;;;6.20;1.10;;;;;;;;;;5481443;26;20749;-77
2024/04/16 00:04:49;;;;;;;7.07;1.10;;;;;;;;;;5465078;26;20362;-81
2024/04/16 00:07:14;;;;;;;6.45;1.30;;;;;;;;;;5466277;26;20763;-81
2024/04/16 00:09:40;;;;;;;5.07;1.67;;;;;;;;;;5490084;26;20272;-78
2024/04/16 00:12:06;;;;;;;6.57;1.60;;;;;;;;;;5426959;26;20240;-81
2024/04/16 00:14:31;;;;;;;4.33;1.20;;;;;;;;;;5490477;26;20275;-79
2024/04/16 00:16:58;;;;;;;6.30;1.63;;;;;;;;;;5460814;26;20237;-78
2024/04/16 00:19:23;;;;;;;5.10;1.45;;;;;;;;;;5482001;26;20264;-78
2024/04/16 00:21:49;;;;;;;7.25;1.42;;;;;;;;;;5468072;26;20291;-79
2024/04/16 00:24:14;;;;;;;5.23;1.40;;;;;;;;;;5455989;26;20256;-79
2024/04/16 00:26:40;;;;;;;8.02;1.70;;;;;;;;;;5450422;26;20237;-77
2024/04/16 00:29:06;;;;;;;5.37;1.80;;;;;;;;;;5429241;26;20257;-77
2024/04/16 00:31:31;;;;;;;6.27;2.37;;;;;;;;;;5470911;26;20862;-77
2024/04/16 00:33:58;;;;;;;7.93;1.98;;;;;;;;;;5468421;26;20245;-77
2024/04/16 00:36:24;;;;;;;7.75;2.00;;;;;;;;;;5451523;26;20363;-77
2024/04/16 00:38:49;;;;;;;5.13;2.15;;;;;;;;;;5456645;26;20308;-77
2024/04/16 00:41:14;;;;;;;8.70;2.40;;;;;;;;;;5480831;26;20329;-76
2024/04/16 00:43:41;;;;;;;8.10;2.42;;;;;;;;;;5427054;26;20288;-76
2024/04/16 00:46:07;;;;;;;7.00;2.10;;;;;;;;;;5473572;26;20326;-79
2024/04/16 00:48:33;;;;;;;7.15;2.30;;;;;;;;;;5479139;26;20238;-82
2024/04/16 00:50:59;;;;;;;8.07;1.80;;;;;;;;;;5424845;26;20746;-79
2024/04/16 00:53:27;;;;;;;7.63;2.03;;;;;;;;;;5461734;26;20230;-78
2024/04/16 00:55:55;;;;;;;8.00;2.47;;;;;;;;;;5462202;26;20226;-78
2024/04/16 00:58:22;;;;;;;14.13;2.30;;;;;;;;;;5465535;26;20233;-78
2024/04/16 01:00:48;;;;;;;10.02;2.25;;;;;;;;;;5479957;26;20245;-79
2024/04/16 01:03:14;;;;;;;8.75;2.17;;;;;;;;;;5459105;26;20268;-79
2024/04/16 01:05:40;;;;;;;5.73;2.10;;;;;;;;;;5414732;26;20323;-79
2024/04/16 01:08:11;;;;;;;7.38;2.17;;;;;;;;;;5475194;25;20627;-79
2024/04/16 01:10:39;;;;;;;6.78;2.15;;;;;;;;;;5498762;26;20373;-80
2024/04/16 01:13:05;;;;;;;6.37;2.10;;;;;;;;;;5458907;26;20642;-81
2024/04/16 01:15:30;;;;;;;10.73;2.07;;;;;;;;;;5454689;26;20241;-81
2024/04/16 01:17:57;;;;;;;7.83;2.20;;;;;;;;;;5483321;26;20276;-81
2024/04/16 01:20:24;;;;;;;8.60;2.10;;;;;;;;;;5482601;26;20288;-80
2024/04/16 01:22:51;;;;;;;15.13;2.85;;;;;;;;;;5400509;26;20284;-83
2024/04/16 01:25:17;;;;;;;10.20;2.60;;;;;;;;;;5463518;26;20234;-81
2024/04/16 01:27:42;;;;;;;10.60;3.40;;;;;;;;;;5460255;26;20268;-82
2024/04/16 01:30:08;;;;;;;11.63;5.65;;;;;;;;;;5459904;26;20280;-80
2024/04/16 01:32:34;;;;;;;11.93;2.40;;;;;;;;;;5479337;26;20242;-80
2024/04/16 01:34:59;;;;;;;6.07;1.50;;;;;;;;;;5472615;26;20233;-80
2024/04/16 01:37:25;;;;;;;5.83;1.53;;;;;;;;;;5473076;26;20226;-81
2024/04/16 01:39:50;;;;;;;4.93;0.87;;;;;;;;;;5456470;26;20599;-76
2024/04/16 01:42:15;;;;;;;2.50;0.73;;;;;;;;;;5446231;26;20240;-78
2024/04/16 01:44:45;;;;;;;4.17;0.60;;;;;;;;;;5441855;26;20243;-79
2024/04/16 01:47:11;;;;;;;2.97;0.60;;;;;;;;;;5479763;26;20248;-76
2024/04/16 01:49:37;;;;;;;3.77;0.60;;;;;;;;;;5479521;26;20287;-82
2024/04/16 01:52:02;;;;;;;2.10;0.87;;;;;;;;;;5465647;26;20295;-81
2024/04/16 01:54:28;;;;;;;4.63;0.90;;;;;;;;;;5483168;26;20313;-80
2024/04/16 01:56:53;;;;;;;5.17;0.80;;;;;;;;;;5460853;26;20263;-80
2024/04/16 01:59:19;;;;;;;2.87;0.60;;;;;;;;;;5480834;26;20276;-80
2024/04/16 02:01:45;;;;;;;2.93;0.53;;;;;;;;;;5475827;26;20287;-80
2024/04/16 02:04:10;;;;;;;4.47;0.90;;;;;;;;;;5430906;26;20448;-78
2024/04/16 02:06:36;;;;;;;3.43;0.80;;;;;;;;;;5474685;26;20699;-78
2024/04/16 02:09:01;;;;;;;4.50;0.70;;;;;;;;;;5460095;26;20622;-78
2024/04/16 02:11:27;;;;;;;3.10;0.77;;;;;;;;;;5473961;26;20245;-77
2024/04/16 02:13:55;;;;;;;3.57;0.90;;;;;;;;;;5470089;26;20253;-78
2024/04/16 02:16:21;;;;;;;4.00;1.07;;;;;;;;;;5442365;26;20245;-77
2024/04/16 02:18:46;;;;;;;5.00;1.17;;;;;;;;;;5471401;26;20348;-77
2024/04/16 02:21:11;;;;;;;3.83;1.20;;;;;;;;;;5486079;26;20274;-77
2024/04/16 02:23:37;;;;;;;10.27;3.07;;;;;;;;;;5480328;26;20273;-76
2024/04/16 02:26:02;;;;;;;10.60;2.23;;;;;;;;;;5485780;26;20240;-76
2024/04/16 02:28:28;;;;;;;11.60;1.93;;;;;;;;;;5455090;26;20263;-76
2024/04/16 02:30:53;;;;;;;12.40;2.10;;;;;;;;;;5482432;26;20242;-75
2024/04/16 02:33:20;;;;;;;12.83;2.53;;;;;;;;;;5470531;26;20395;-75
2024/04/16 02:35:46;;;;;;;18.63;2.20;;;;;;;;;;5444693;26;20245;-70
2024/04/16 02:38:11;;;;;;;12.80;2.07;;;;;;;;;;5459114;26;20314;-73
2024/04/16 02:40:37;;;;;;;17.33;2.40;;;;;;;;;;5452356;26;20253;-74
2024/04/16 02:43:03;;;;;;;19.60;2.57;;;;;;;;;;5465096;26;20293;-75
2024/04/16 02:45:28;;;;;;;13.77;1.97;;;;;;;;;;5456322;26;20316;-74
2024/04/16 02:47:53;;;;;;;14.60;2.47;;;;;;;;;;5448673;26;20353;-75
2024/04/16 02:50:20;;;;;;;16.20;2.60;;;;;;;;;;5454963;26;20285;-75
2024/04/16 02:52:45;;;;;;;19.38;3.10;;;;;;;;;;5478551;26;20240;-75
2024/04/16 02:55:11;;;;;;;15.80;2.60;;;;;;;;;;5446392;26;20250;-73
2024/04/16 02:57:36;;;;;;;11.90;2.63;;;;;;;;;;5465564;26;20256;-75
2024/04/16 03:00:03;;;;;;;12.30;2.58;;;;;;;;;;5479504;26;20263;-76
2024/04/16 03:02:29;;;;;;;11.50;2.08;;;;;;;;;;5495165;26;20705;-75
2024/04/16 03:04:54;;;;;;;14.33;2.30;;;;;;;;;;5478669;26;20233;-76
2024/04/16 03:07:20;;;;;;;12.88;1.80;;;;;;;;;;5445044;26;20241;-75
2024/04/16 03:09:45;;;;;;;16.30;2.47;;;;;;;;;;5500531;25;20352;-75
2024/04/16 03:12:10;;;;;;;16.43;2.33;;;;;;;;;;5439922;26;20245;-75
2024/04/16 03:14:36;;;;;;;11.77;2.23;;;;;;;;;;5473010;26;20256;-76
2024/04/16 03:17:03;;;;;;;6.77;1.70;;;;;;;;;;5478134;26;20233;-76
2024/04/16 03:19:29;;;;;;;13.63;2.17;;;;;;;;;;5468036;26;20631;-78
2024/04/16 03:21:54;;;;;;;8.07;1.67;;;;;;;;;;5486727;26;20253;-77
2024/04/16 03:24:20;;;;;;;10.67;1.70;;;;;;;;;;5492900;26;20761;-77
2024/04/16 03:26:46;;;;;;;14.63;2.07;;;;;;;;;;5466915;26;20275;-77
2024/04/16 03:29:11;;;;;;;7.70;1.73;;;;;;;;;;5466788;26;20290;-77
2024/04/16 03:31:37;;;;;;;6.77;1.63;;;;;;;;;;5477106;26;20267;-77
2024/04/16 03:34:02;;;;;;;7.13;1.33;;;;;;;;;;5454203;26;20630;-78
2024/04/16 03:36:28;;;;;;;7.40;1.80;;;;;;;;;;5468985;26;20325;-77
2024/04/16 03:38:53;;;;;;;8.53;1.60;;;;;;;;;;5431798;26;20702;-77
2024/04/16 03:41:21;;;;;;;5.73;1.47;;;;;;;;;;5423720;26;20587;-76
2024/04/16 03:43:49;;;;;;;4.93;1.13;;;;;;;;;;5465536;26;20284;-77
2024/04/16 03:46:14;;;;;;;6.23;1.40;;;;;;;;;;5465847;26;20253;-77
2024/04/16 03:48:40;;;;;;;4.77;1.10;;;;;;;;;;5440426;26;20602;-75
2024/04/16 03:51:05;;;;;;;8.30;1.40;;;;;;;;;;5454719;26;20285;-76
2024/04/16 03:53:31;;;;;;;5.47;1.00;;;;;;;;;;5437894;26;20288;-75
2024/04/16 03:55:59;;;;;;;4.10;1.30;;;;;;;;;;5453466;26;20293;-76
2024/04/16 03:58:26;;;;;;;3.00;1.03;;;;;;;;;;5445878;26;20345;-75
2024/04/16 04:01:03;;;;;;;4.70;1.00;;;;;;;;;;5431828;26;20280;-73
2024/04/16 04:03:31;;;;;;;4.80;0.97;;;;;;;;;;5450384;26;20307;-74
2024/04/16 04:05:56;;;;;;;3.57;0.50;;;;;;;;;;5460698;26;20850;-75
2024/04/16 04:08:22;;;;;;;5.57;0.90;;;;;;;;;;5453818;26;20256;-71
2024/04/16 04:10:48;;;;;;;5.83;0.87;;;;;;;;;;5486334;25;20232;-71
2024/04/16 04:13:13;;;;;;;5.07;0.80;;;;;;;;;;5471079;25;20257;-74
2024/04/16 04:15:39;;;;;;;5.97;0.90;;;;;;;;;;5485839;26;20410;-72
2024/04/16 04:18:05;;;;;;;3.03;0.80;;;;;;;;;;5429717;26;20257;-71
2024/04/16 04:20:31;;;;;;;5.13;0.77;;;;;;;;;;5469206;26;20247;-70
2024/04/16 04:22:57;;;;;;;3.43;0.63;;;;;;;;;;5459164;26;20245;-70
2024/04/16 04:25:22;;;;;;;3.43;0.57;;;;;;;;;;5480141;26;20749;-75
2024/04/16 04:27:48;;;;;;;5.10;0.97;;;;;;;;;;5471254;26;20237;-71
2024/04/16 04:30:13;;;;;;;4.80;0.80;;;;;;;;;;5443511;26;20636;-70
2024/04/16 04:32:39;;;;;;;6.17;0.90;;;;;;;;;;5461349;26;20268;-73
2024/04/16 04:35:06;;;;;;;4.10;0.50;;;;;;;;;;5501655;26;20232;-73
2024/04/16 04:37:32;;;;;;;3.27;0.60;;;;;;;;;;5479688;26;20276;-73
2024/04/16 04:39:58;;;;;;;3.97;0.80;;;;;;;;;;5461230;26;20273;-72
2024/04/16 04:42:25;;;;;;;5.33;0.90;;;;;;;;;;5462185;26;20628;-71
2024/04/16 04:44:51;;;;;;;2.07;0.70;;;;;;;;;;5497223;26;20263;-71
2024/04/16 04:47:19;;;;;;;5.70;0.77;;;;;;;;;;5492101;25;20239;-71
2024/04/16 04:49:45;;;;;;;5.20;0.70;;;;;;;;;;5454287;26;20276;-73
2024/04/16 04:52:10;;;;;;;2.53;0.60;;;;;;;;;;5453424;26;20241;-72
2024/04/16 04:54:36;;;;;;;2.40;0.60;;;;;;;;;;5475651;25;20233;-72
2024/04/16 04:57:02;;;;;;;3.13;0.70;;;;;;;;;;5448673;26;20249;-77
2024/04/16 04:59:28;;;;;;;6.17;0.70;;;;;;;;;;5477613;26;20268;-75
2024/04/16 05:01:53;;;;;;;4.90;0.97;;;;;;;;;;5444026;26;20257;-76
2024/04/16 05:04:19;;;;;;;3.03;0.67;;;;;;;;;;5470910;26;20584;-77
2024/04/16 05:06:44;;;;;;;2.87;0.60;;;;;;;;;;5490779;26;20242;-76
2024/04/16 05:09:10;;;;;;;4.53;0.90;;;;;;;;;;5481361;26;20244;-76
2024/04/16 05:11:35;;;;;;;2.00;0.73;;;;;;;;;;5483607;26;20279;-77
2024/04/16 05:14:01;;;;;;;4.03;0.80;;;;;;;;;;5463364;26;20773;-76
2024/04/16 05:16:29;;;;;;;4.63;1.10;;;;;;;;;;5496867;26;20227;-73
2024/04/16 05:18:54;;;;;;;5.20;0.97;;;;;;;;;;5488952;21;20299;-90
2024/04/16 05:21:21;;;;;;;6.07;1.43;;;;;;;;;;5466340;26;20751;-90
2024/04/16 05:23:48;;;;;;;6.57;1.17;;;;;;;;;;5452892;26;20245;-90
2024/04/16 05:26:14;;;;;;;6.07;1.10;;;;;;;;;;5395854;26;20253;-91
2024/04/16 05:28:40;;;;;;;3.93;1.13;;;;;;;;;;5413848;26;20333;-90
2024/04/16 05:31:05;;;;;;;4.90;1.17;;;;;;;;;;5454425;26;20272;-91
2024/04/16 05:33:31;;;;;;;6.60;1.83;;;;;;;;;;5449148;26;20234;-90
2024/04/16 05:35:56;;;;;;;4.53;1.87;;;;;;;;;;5450432;26;20233;-90
2024/04/16 05:38:22;;;;;;;8.87;1.87;;;;;;;;;;5450033;26;20332;-90
2024/04/16 05:40:47;;;;;;;7.90;2.00;;;;;;;;;;5452369;26;20241;-91
2024/04/16 05:43:13;;;;;;;6.73;1.73;;;;;;;;;;5457716;20;20236;-76
2024/04/16 05:45:38;;;;;;;6.70;2.17;;;;;;;;;;5512341;25;20239;-78
2024/04/16 05:48:05;;;;;;;6.17;2.10;;;;;;;;;;5479142;25;20263;-77
2024/04/16 05:50:31;;;;;;;5.17;2.10;;;;;;;;;;5513510;25;20247;-77
2024/04/16 05:52:56;;;;;;;5.57;2.00;;;;;;;;;;5522576;25;20236;-75
2024/04/16 05:55:21;;;;;;;16.40;3.10;;;;;;;;;;5534176;25;20762;-76
2024/04/16 05:57:47;;;;;;;5.00;2.20;;;;;;;;;;5528686;25;20781;-78
2024/04/16 06:00:13;;;;;;;5.57;2.23;;;;;;;;;;5536079;25;20227;-76
2024/04/16 06:02:39;;;;;;;5.10;2.40;;;;;;;;;;5521677;25;20266;-79
2024/04/16 06:05:06;;;;;;;4.73;2.60;;;;;;;;;;5486827;26;20267;-75
2024/04/16 06:07:31;;;;;;;8.20;2.40;;;;;;;;;;5512278;25;20863;-75
2024/04/16 06:09:57;;;;;;;3.93;1.70;;;;;;;;;;5517385;25;20259;-76
2024/04/16 06:12:22;;;;;;;5.90;2.00;;;;;;;;;;5524847;25;20236;-77
2024/04/16 06:14:48;;;;;;;3.40;1.87;;;;;;;;;;5522502;25;20229;-79
2024/04/16 06:17:13;;;;;;;2.43;1.03;;;;;;;;;;5523374;26;20227;-76
2024/04/16 06:19:41;;;;;;;1.00;0.90;;;;;;;;;;5518679;25;20251;-76
2024/04/16 06:22:07;;;;;;;1.40;0.87;;;;;;;;;;5520142;25;20369;-76
2024/04/16 06:24:35;;;;;;;6.17;1.37;;;;;;;;;;5530401;25;20309;-76
2024/04/16 06:27:01;;;;;;;3.27;1.17;;;;;;;;;;5520303;25;20327;-74
2024/04/16 06:29:26;;;;;;;1.13;0.75;;;;;;;;;;5522551;25;20232;-76
2024/04/16 06:31:52;;;;;;;2.93;0.53;;;;;;;;;;5520509;25;20262;-75
2024/04/16 06:34:17;;;;;;;1.95;0.60;;;;;;;;;;5523513;25;20347;-76
2024/04/16 06:36:44;;;;;;;0.88;0.47;;;;;;;;;;5527480;25;20366;-78
2024/04/16 06:39:09;;;;;;;4.47;0.70;;;;;;;;;;5525443;25;20234;-76
2024/04/16 06:41:35;;;;;;;4.88;0.90;;;;;;;;;;5515331;25;20569;-78
2024/04/16 06:44:00;;;;;;;6.13;1.10;;;;;;;;;;5513143;25;20290;-75
2024/04/16 06:46:25;;;;;;;3.67;1.40;;;;;;;;;;5517946;25;20274;-74
2024/04/16 06:48:51;;;;;;;4.33;1.50;;;;;;;;;;5524517;25;20235;-75
2024/04/16 06:51:16;;;;;;;4.07;1.50;;;;;;;;;;5521697;25;20347;-77
2024/04/16 06:53:42;;;;;;;3.93;1.53;;;;;;;;;;5521095;25;20252;-76
2024/04/16 06:56:07;;;;;;;2.30;1.23;;;;;;;;;;5516271;25;20236;-79
2024/04/16 06:58:33;;;;;;;2.03;1.50;;;;;;;;;;5520979;25;20312;-77
2024/04/16 07:01:00;;;;;;;3.27;1.90;;;;;;;;;;5522962;25;20236;-78
2024/04/16 07:03:26;;;;;;;2.00;1.88;;;;;;;;;;5527662;25;20275;-80
2024/04/16 07:05:52;;;;;;;2.28;1.70;;;;;;;;;;5479506;25;20970;-77
2024/04/16 07:08:18;;;;;;;3.77;1.90;;;;;;;;;;5531599;25;20239;-78
2024/04/16 07:10:47;;;;;;;4.00;1.80;;;;;;;;;;5524038;25;20267;-81
2024/04/16 07:13:14;;;;;;;4.65;2.05;;;;;;;;;;5476979;26;20603;-79
2024/04/16 07:15:40;;;;;;;2.50;2.10;;;;;;;;;;5514425;25;20271;-76
2024/04/16 07:18:06;;;;;;;4.50;2.00;;;;;;;;;;5508718;25;20274;-78
2024/04/16 07:20:32;;;;;;;3.42;1.90;;;;;;;;;;5507537;25;20333;-79
2024/04/16 07:22:57;;;;;;;3.33;2.00;;;;;;;;;;5521030;25;20275;-78
2024/04/16 07:25:23;;;;;;;5.65;1.85;;;;;;;;;;5522597;26;20248;-78
2024/04/16 07:27:49;;;;;;;3.67;1.80;;;;;;;;;;5515078;25;20756;-76
2024/04/16 07:30:15;;;;;;;2.53;2.03;;;;;;;;;;5482455;25;20243;-76
2024/04/16 07:32:41;;;;;;;3.33;1.63;;;;;;;;;;5508376;25;20239;-76
2024/04/16 07:35:06;;;;;;;4.20;2.10;;;;;;;;;;5510957;25;20582;-74
2024/04/16 07:37:32;;;;;;;3.95;1.90;;;;;;;;;;5497259;26;20251;-75
2024/04/16 07:39:57;;;;;;;6.78;1.80;;;;;;;;;;5515211;25;20231;-74
2024/04/16 07:42:23;;;;;;;2.57;1.60;;;;;;;;;;5470588;26;20239;-75
2024/04/16 07:44:48;;;;;;;7.15;2.00;;;;;;;;;;5518973;26;20247;-75
2024/04/16 07:47:14;;;;;;;4.78;2.30;;;;;;;;;;5492292;25;20684;-75
2024/04/16 07:49:40;;;;;;;6.25;2.03;;;;;;;;;;5534993;25;20235;-74
2024/04/16 07:52:05;;;;;;;9.75;2.08;;;;;;;;;;5519133;25;20779;-74
2024/04/16 07:54:32;;;;;;;4.70;2.05;;;;;;;;;;5522224;25;20270;-75
2024/04/16 07:56:59;;;;;;;6.68;1.90;;;;;;;;;;5515836;25;20244;-74
2024/04/16 07:59:25;;;;;;;5.85;1.80;;;;;;;;;;5524240;25;20307;-72
2024/04/16 08:01:50;;;;;;;8.57;1.80;;;;;;;;;;5513023;25;20343;-73
2024/04/16 08:04:16;;;;;;;7.30;1.65;;;;;;;;;;5480538;26;20571;-75
2024/04/16 08:06:42;;;;;;;7.75;1.80;;;;;;;;;;5510742;25;20255;-75
2024/04/16 08:09:08;;;;;;;5.88;1.17;;;;;;;;;;5499407;25;20277;-75
2024/04/16 08:11:35;;;;;;;2.92;0.75;;;;;;;;;;5502657;25;20542;-72
2024/04/16 08:14:00;;;;;;;9.13;0.95;;;;;;;;;;5515803;25;20634;-75
2024/04/16 08:16:26;;;;;;;2.28;0.73;;;;;;;;;;5514063;25;20271;-74
2024/04/16 08:18:51;;;;;;;1.98;0.50;;;;;;;;;;5517066;25;20379;-71
2024/04/16 08:21:17;;;;;;;1.92;0.60;;;;;;;;;;5517264;25;20232;-73
2024/04/16 08:23:42;;;;;;;4.32;0.77;;;;;;;;;;5522055;25;20377;-74
2024/04/16 08:26:08;;;;;;;2.28;0.40;;;;;;;;;;5512188;25;20244;-74
2024/04/16 08:28:33;;;;;;;1.70;0.20;;;;;;;;;;5508662;25;20236;-74
2024/04/16 08:31:02;;;;;;;2.05;0.50;;;;;;;;;;5520493;25;20339;-75
2024/04/16 08:33:28;;;;;;;2.05;0.22;;;;;;;;;;5500516;25;20239;-75
2024/04/16 08:35:54;;;;;;;1.95;0.20;;;;;;;;;;5510092;25;20290;-75
2024/04/16 08:38:20;;;;;;;0.80;0.20;;;;;;;;;;5513746;25;20756;-76
2024/04/16 08:40:46;;;;;;;0.43;0.20;;;;;;;;;;5501176;25;20745;-73
2024/04/16 08:43:12;;;;;;;2.75;0.30;;;;;;;;;;5497108;25;20239;-75
2024/04/16 08:45:41;;;;;;;1.65;0.30;;;;;;;;;;5510480;25;20699;-73
2024/04/16 08:48:08;;;;;;;0.80;0.30;;;;;;;;;;5498077;25;20275;-75
2024/04/16 08:50:34;;;;;;;0.40;0.20;;;;;;;;;;5502007;25;20363;-74
2024/04/16 08:53:00;;;;;;;1.13;0.57;;;;;;;;;;5512157;25;20771;-74
2024/04/16 08:55:29;;;;;;;1.40;0.30;;;;;;;;;;5488517;25;20247;-75
2024/04/16 08:57:55;;;;;;;0.80;0.40;;;;;;;;;;5516013;25;20243;-73
2024/04/16 09:00:21;;;;;;;0.40;0.40;;;;;;;;;;5505917;25;20241;-76
2024/04/16 09:02:49;;;;;;;0.32;0.30;;;;;;;;;;5510531;25;20243;-72
2024/04/16 09:05:16;;;;;;;0.60;0.60;;;;;;;;;;5517809;25;20278;-74
2024/04/16 09:07:41;;;;;;;1.98;0.85;;;;;;;;;;5502883;25;20340;-75
2024/04/16 09:10:21;;;;;;;1.10;0.82;;;;;;;;;;5516616;25;20244;-75
2024/04/16 09:12:47;;;;;;;1.15;1.00;;;;;;;;;;5505566;25;20303;-76
2024/04/16 09:15:14;;;;;;;2.08;1.02;;;;;;;;;;5515030;25;20243;-74
2024/04/16 09:17:56;;;;;;;0.95;0.63;;;;;;;;;;5513881;25;20568;-77
2024/04/16 09:20:26;;;;;;;2.42;0.65;;;;;;;;;;5500196;25;20271;-75
2024/04/16 09:22:53;;;;;;;3.70;0.80;;;;;;;;;;5490995;25;20549;-73
2024/04/16 09:25:21;;;;;;;0.82;0.70;;;;;;;;;;5498606;25;20351;-76
2024/04/16 09:27:48;;;;;;;0.88;0.52;;;;;;;;;;5513481;25;20248;-74
2024/04/16 09:30:14;;;;;;;2.25;0.90;;;;;;;;;;5513627;25;20237;-75
2024/04/16 09:32:42;;;;;;;0.75;0.70;;;;;;;;;;5482121;26;20235;-73
2024/04/16 09:35:08;;;;;;;2.13;0.95;;;;;;;;;;5510376;25;20240;-75
2024/04/16 09:37:33;;;;;;;1.02;0.70;;;;;;;;;;5507541;25;20324;-75
2024/04/16 09:40:00;;;;;;;0.95;0.80;;;;;;;;;;5513884;25;20274;-73
2024/04/16 09:42:26;;;;;;;0.80;0.80;;;;;;;;;;5511850;25;20236;-76
2024/04/16 09:44:52;;;;;;;2.22;0.80;;;;;;;;;;5486212;25;20555;-75
2024/04/16 09:47:21;;;;;;;0.90;0.68;;;;;;;;;;5478829;25;20279;-75
2024/04/16 09:49:47;;;;;;;0.57;0.57;;;;;;;;;;5500451;25;20235;-74
2024/04/16 09:52:13;;;;;;;2.42;0.57;;;;;;;;;;5534601;25;20276;-74
2024/04/16 09:54:44;;;;;;;1.58;0.63;;;;;;;;;;5483422;25;20754;-75
2024/04/16 09:57:15;;;;;;;0.75;0.60;;;;;;;;;;5477697;26;20251;-73
2024/04/16 09:59:41;;;;;;;1.08;0.50;;;;;;;;;;5520008;25;20861;-76
2024/04/16 10:02:09;;;;;;;0.82;0.40;;;;;;;;;;5525574;25;21052;-75
2024/04/16 10:04:35;;;;;;;3.22;0.68;;;;;;;;;;5483243;25;20235;-76
2024/04/16 10:07:01;;;;;;;0.80;0.47;;;;;;;;;;5516143;25;20243;-76
2024/04/16 10:09:28;;;;;;;2.40;0.90;;;;;;;;;;5521613;25;20239;-76
2024/04/16 10:11:55;;;;;;;0.50;0.40;;;;;;;;;;5478270;25;20663;-76
2024/04/16 10:14:21;;;;;;;2.78;0.50;;;;;;;;;;5478620;26;20240;-76
2024/04/16 10:16:47;;;;;;;0.47;0.45;;;;;;;;;;5504483;25;20653;-75
2024/04/16 10:19:15;;;;;;;0.77;0.50;;;;;;;;;;5499649;25;20286;-75
2024/04/16 10:21:41;;;;;;;0.80;0.50;;;;;;;;;;5506339;25;20228;-74
2024/04/16 10:24:11;;;;;;;0.20;0.20;;;;;;;;;;5509188;25;20244;-75
2024/04/16 10:26:40;;;;;;;0.30;0.30;;;;;;;;;;5516000;25;20609;-79
2024/04/16 10:29:17;;;;;;;0.73;0.40;;;;;;;;;;5503474;25;20795;-74
2024/04/16 10:31:44;;;;;;;0.50;0.45;;;;;;;;;;5495523;25;20763;-76
2024/04/16 10:34:28;;;;;;;0.52;0.40;;;;;;;;;;5481191;25;20291;-76
2024/04/16 10:36:57;;;;;;;0.30;0.30;;;;;;;;;;5528148;25;20261;-74
2024/04/16 10:39:31;;;;;;;1.98;0.47;;;;;;;;;;5512395;25;20228;-73
2024/04/16 10:41:59;;;;;;;1.13;0.50;;;;;;;;;;5476909;26;20802;-77
2024/04/16 10:44:25;;;;;;;0.73;0.30;;;;;;;;;;5512985;25;20283;-75
2024/04/16 10:46:52;;;;;;;1.27;0.40;;;;;;;;;;5521212;25;20603;-74
2024/04/16 10:49:22;;;;;;;0.68;0.38;;;;;;;;;;5512349;25;20559;-75
2024/04/16 10:51:49;;;;;;;0.30;0.30;;;;;;;;;;5510235;25;20248;-75
2024/04/16 10:54:14;;;;;;;0.30;0.30;;;;;;;;;;5516028;25;20279;-72
2024/04/16 10:56:41;;;;;;;0.50;0.50;;;;;;;;;;5490446;25;20239;-72
2024/04/16 10:59:10;;;;;;;0.60;0.40;;;;;;;;;;5520786;25;20232;-73
2024/04/16 11:01:40;;;;;;;5.18;0.40;;;;;;;;;;5519573;25;20243;-72
2024/04/16 11:04:17;;;;;;;1.85;0.30;;;;;;;;;;5489400;26;20251;-72
2024/04/16 11:06:45;;;;;;;0.38;0.30;;;;;;;;;;5516794;25;20311;-76
2024/04/16 11:09:10;;;;;;;0.85;0.20;;;;;;;;;;5517463;25;20676;-74
2024/04/16 11:11:38;;;;;;;0.45;0.40;;;;;;;;;;5520150;25;20228;-76
2024/04/16 11:14:06;;;;;;;0.68;0.50;;;;;;;;;;5517128;25;20599;-74
2024/04/16 11:16:32;;;;;;;0.40;0.30;;;;;;;;;;5521855;25;20240;-74
2024/04/16 11:18:58;;;;;;;0.68;0.38;;;;;;;;;;5520411;25;20355;-73
2024/04/16 11:21:29;;;;;;;1.25;0.30;;;;;;;;;;5510017;25;20569;-75
2024/04/16 11:23:56;;;;;;;1.00;0.30;;;;;;;;;;5517070;25;20338;-74
2024/04/16 11:26:22;;;;;;;0.30;0.30;;;;;;;;;;5521540;25;20232;-75
2024/04/16 11:28:51;;;;;;;3.95;0.47;;;;;;;;;;5495893;26;20259;-74
2024/04/16 11:31:18;;;;;;;1.73;0.50;;;;;;;;;;5518343;25;20247;-71
2024/04/16 11:33:44;;;;;;;1.05;0.50;;;;;;;;;;5515769;25;20342;-76
2024/04/16 11:36:10;;;;;;;0.50;0.40;;;;;;;;;;5509490;25;20240;-77
2024/04/16 11:38:36;;;;;;;0.55;0.40;;;;;;;;;;5519892;25;20912;-73
2024/04/16 11:41:03;;;;;;;0.35;0.35;;;;;;;;;;5516189;25;20750;-72
2024/04/16 11:43:38;;;;;;;0.65;0.32;;;;;;;;;;5483505;25;20247;-72
2024/04/16 11:46:07;;;;;;;0.40;0.40;;;;;;;;;;5516950;25;20359;-75
2024/04/16 11:48:34;;;;;;;0.32;0.30;;;;;;;;;;5519221;25;20291;-75
2024/04/16 11:51:00;;;;;;;0.50;0.30;;;;;;;;;;5511310;25;20227;-73
2024/04/16 11:53:25;;;;;;;0.50;0.30;;;;;;;;;;5517731;25;20239;-76
2024/04/16 11:55:50;;;;;;;0.70;0.30;;;;;;;;;;5519248;25;20566;-75
2024/04/16 11:58:16;;;;;;;1.05;0.30;;;;;;;;;;5513714;25;20236;-72
2024/04/16 12:00:41;;;;;;;0.63;0.30;;;;;;;;;;5519513;25;20315;-76
2024/04/16 12:03:07;;;;;;;2.58;0.50;;;;;;;;;;5515898;25;20262;-74
2024/04/16 12:05:33;;;;;;;3.40;0.38;;;;;;;;;;5521334;25;20326;-75
2024/04/16 12:07:59;;;;;;;0.40;0.40;;;;;;;;;;5518409;26;20247;-74
2024/04/16 12:10:25;;;;;;;0.38;0.38;;;;;;;;;;5483680;25;20327;-73
2024/04/16 12:12:51;;;;;;;3.20;0.60;;;;;;;;;;5491758;26;20240;-75
2024/04/16 12:15:17;;;;;;;0.50;0.50;;;;;;;;;;5521790;25;20275;-73
2024/04/16 12:17:42;;;;;;;0.98;0.63;;;;;;;;;;5514406;25;20224;-74
2024/04/16 12:20:08;;;;;;;0.40;0.40;;;;;;;;;;5519523;25;20650;-75
2024/04/16 12:22:34;;;;;;;2.90;0.80;;;;;;;;;;5516177;25;20240;-74
2024/04/16 12:25:00;;;;;;;0.50;0.50;;;;;;;;;;5518518;25;20566;-75
2024/04/16 12:27:26;;;;;;;0.80;0.50;;;;;;;;;;5513625;25;20727;-76
2024/04/16 12:29:52;;;;;;;0.70;0.70;;;;;;;;;;5520621;25;20231;-72
2024/04/16 12:32:17;;;;;;;0.52;0.50;;;;;;;;;;5525563;25;20371;-75
2024/04/16 12:34:44;;;;;;;0.50;0.50;;;;;;;;;;5489926;25;20282;-76
2024/04/16 12:37:09;;;;;;;1.65;0.50;;;;;;;;;;5488704;26;20256;-73
2024/04/16 12:39:35;;;;;;;0.85;0.60;;;;;;;;;;5513715;25;20275;-76
2024/04/16 12:42:00;;;;;;;0.60;0.60;;;;;;;;;;5514599;25;20228;-76
2024/04/16 12:44:26;;;;;;;3.15;0.90;;;;;;;;;;5513756;25;20350;-75
2024/04/16 12:46:52;;;;;;;0.52;0.50;;;;;;;;;;5517670;25;20232;-77
2024/04/16 12:49:25;;;;;;;1.05;0.70;;;;;;;;;;5516159;25;20287;-75
2024/04/16 12:51:51;;;;;;;0.80;0.80;;;;;;;;;;5516383;25;20243;-74
2024/04/16 12:54:19;;;;;;;0.65;0.40;;;;;;;;;;5518007;25;20335;-76
2024/04/16 12:56:48;;;;;;;0.80;0.80;;;;;;;;;;5519501;25;20232;-76
2024/04/16 12:59:18;;;;;;;0.63;0.60;;;;;;;;;;5515114;25;20295;-74
2024/04/16 13:01:44;;;;;;;0.40;0.40;;;;;;;;;;5517112;25;20228;-73
2024/04/16 13:04:09;;;;;;;0.70;0.60;;;;;;;;;;5505748;25;20274;-73
2024/04/16 13:06:35;;;;;;;0.73;0.35;;;;;;;;;;5485649;25;20777;-73
2024/04/16 13:09:00;;;;;;;2.03;0.80;;;;;;;;;;5518977;25;20645;-72
2024/04/16 13:11:26;;;;;;;0.60;0.55;;;;;;;;;;5518161;25;20252;-75
2024/04/16 13:13:51;;;;;;;0.60;0.60;;;;;;;;;;5517270;25;20571;-75
2024/04/16 13:16:17;;;;;;;1.00;0.55;;;;;;;;;;5520420;25;20836;-71
2024/04/16 13:18:43;;;;;;;1.08;0.60;;;;;;;;;;5486822;26;20382;-74
2024/04/16 13:21:11;;;;;;;1.45;0.40;;;;;;;;;;5520525;25;20236;-75
2024/04/16 13:23:37;;;;;;;0.70;0.50;;;;;;;;;;5511328;25;20232;-75
2024/04/16 13:26:03;;;;;;;1.33;0.50;;;;;;;;;;5516304;26;20247;-74
2024/04/16 13:28:29;;;;;;;2.55;0.50;;;;;;;;;;5520658;25;20299;-75
2024/04/16 13:30:56;;;;;;;2.95;0.50;;;;;;;;;;5514085;25;20270;-76
2024/04/16 13:33:22;;;;;;;0.30;0.30;;;;;;;;;;5517708;26;20795;-74
2024/04/16 13:35:51;;;;;;;1.67;0.45;;;;;;;;;;5509405;25;20240;-75
2024/04/16 13:38:21;;;;;;;0.45;0.30;;;;;;;;;;5509648;25;20305;-75
2024/04/16 13:40:48;;;;;;;0.40;0.38;;;;;;;;;;5515441;25;20258;-73
2024/04/16 13:43:18;;;;;;;0.57;0.30;;;;;;;;;;5511262;26;20348;-75
2024/04/16 13:45:43;;;;;;;0.30;0.30;;;;;;;;;;5517196;25;20309;-75
2024/04/16 13:48:10;;;;;;;0.30;0.30;;;;;;;;;;5510995;26;20297;-74
2024/04/16 13:50:43;;;;;;;1.70;0.30;;;;;;;;;;5518200;25;20240;-75
2024/04/16 13:53:09;;;;;;;0.45;0.20;;;;;;;;;;5515314;25;20566;-75
2024/04/16 13:55:38;;;;;;;0.68;0.30;;;;;;;;;;5516069;25;20286;-74
2024/04/16 13:58:04;;;;;;;1.02;0.30;;;;;;;;;;5507808;25;20379;-74
2024/04/16 14:00:30;;;;;;;0.20;0.20;;;;;;;;;;5518555;25;20627;-77
2024/04/16 14:02:55;;;;;;;0.40;0.40;;;;;;;;;;5474954;26;20664;-77
2024/04/16 14:05:22;;;;;;;1.15;0.28;;;;;;;;;;5545619;25;20260;-76
2024/04/16 14:07:47;;;;;;;0.30;0.30;;;;;;;;;;5519146;25;20231;-76
2024/04/16 14:10:13;;;;;;;0.85;0.32;;;;;;;;;;5517598;25;20596;-76
2024/04/16 14:12:38;;;;;;;0.60;0.30;;;;;;;;;;5496931;25;20319;-76
2024/04/16 14:15:05;;;;;;;1.38;0.30;;;;;;;;;;5537040;25;20327;-74
2024/04/16 14:17:31;;;;;;;0.20;0.10;;;;;;;;;;5514955;25;20235;-74
2024/04/16 14:19:57;;;;;;;0.85;0.10;;;;;;;;;;5485258;26;20270;-75
2024/04/16 14:22:23;;;;;;;0.65;0.15;;;;;;;;;;5481418;26;20578;-75
2024/04/16 14:24:49;;;;;;;0.15;0.10;;;;;;;;;;5516780;25;20688;-76
2024/04/16 14:27:14;;;;;;;0.45;0.20;;;;;;;;;;5515355;25;20270;-71
2024/04/16 14:29:40;;;;;;;0.30;0.20;;;;;;;;;;5522091;25;20287;-76
2024/04/16 14:32:06;;;;;;;0.85;0.50;;;;;;;;;;5516326;25;20300;-76
2024/04/16 14:34:32;;;;;;;1.75;0.40;;;;;;;;;;5518732;25;20290;-75
2024/04/16 14:37:00;;;;;;;1.02;0.40;;;;;;;;;;5515748;25;20272;-76